LiveATC.Net - Listen to live air traffic control over the Internet!


ICAO: KBDN  IATA: BDN   Airport: Bend Municipal Airport
City: Bend   State/Province: Oregon
Country: United States   Continent: North America
KBDN METAR Weather: KBDN 241515Z AUTO 19010KT 10SM CLR 04/01 A3000 RMK AO2
KBDN Flight Activity (FlightAware)
KBDN Webcam:  (Airport Webcams) 
KBDN Airport Info   (iFlightPlanner)
KBDN VFR Sectional Chart   (iFlightPlanner) 
KBDN IFR Low Chart   (iFlightPlanner) 

ZSE Seattle Center (Sector 05)
Feed Status: DOWN
Last heard on: 2019-06-03 16:12:02 (234 days 23 hours 42 minutes ago)
Archive Access: ZSE Seattle Center (Sector 05)

ZSE Seattle Center (Sector 05)
Feed Status: UP   Listeners: 0
Listen in your browser - HTML5 player (in browser, HTML5)
Click here to listen with your own player (launches your MP3 player)
Archive Access: ZSE Seattle Center (Sector 05)
FacilityFrequency
Seattle Center (Sector 05 Low)128.150

ZSE Seattle Center (Sector 35)
Feed Status: UP   Listeners: 0
Listen in your browser - HTML5 player (in browser, HTML5)
Click here to listen with your own player (launches your MP3 player)
Archive Access: ZSE Seattle Center (Sector 35)
FacilityFrequency
Seattle Center (Sector 35 Low)126.150

ICAO: KEUG  IATA: EUG   Airport: Mahlon Sweet Field Airport
City: Eugene   State/Province: Oregon
Country: United States   Continent: North America
KEUG METAR Weather: KEUG 241454Z 18009KT 9SM -RA SCT029 BKN037 OVC044 10/08 A3003 RMK AO2 RAB14 SLP170 P0002 60002 T01000083 53010
KEUG Flight Activity (FlightAware)
KEUG Webcam:  
KEUG Airport Info   (iFlightPlanner)
KEUG VFR Sectional Chart   (iFlightPlanner) 
KEUG IFR Low Chart   (iFlightPlanner) 

Seattle Center (Sector 06 Low)
Feed Status: UP   Listeners: 0
Listen in your browser - HTML5 player (in browser, HTML5)
Click here to listen with your own player (launches your MP3 player)
Archive Access: Seattle Center (Sector 06 Low)
FacilityFrequency
Seattle Center (Sector 06 Low)125.800

Seattle Center (Sector 15 High)
Feed Status: UP   Listeners: 0
Listen in your browser - HTML5 player (in browser, HTML5)
Click here to listen with your own player (launches your MP3 player)
Archive Access: Seattle Center (Sector 15 High)
FacilityFrequency
Seattle Center (Sector 15 High)135.150

Seattle Center (Sector 30 Low)
Feed Status: UP   Listeners: 0
Listen in your browser - HTML5 player (in browser, HTML5)
Click here to listen with your own player (launches your MP3 player)
Archive Access: Seattle Center (Sector 30 Low)
FacilityFrequency
Seattle Center (Sector 30 Low)124.850

ICAO: KMFR  IATA: MFR   Airport: Rogue Valley International - Medford Airport
City: Medford   State/Province: Oregon
Country: United States   Continent: North America
KMFR METAR Weather: KMFR 241502Z 00000KT 1/4SM R14/1200V2400FT FG BKN001 BKN085 05/04 A3008 RMK AO2 T00500044
KMFR Flight Activity (FlightAware)
KMFR Webcam:  (Airport Webcams) 
KMFR Airport Info   (iFlightPlanner)
KMFR VFR Sectional Chart   (iFlightPlanner) 
KMFR IFR Low Chart   (iFlightPlanner) 

Seattle Center (Sector 14)
Feed Status: UP   Listeners: 0
Listen in your browser - HTML5 player (in browser, HTML5)
Click here to listen with your own player (launches your MP3 player)
Archive Access: Seattle Center (Sector 14)
FacilityFrequency
Seattle Center (Sector 14 High)134.900

Seattle Center (Sector 14/15)
Feed Status: UP   Listeners: 0
Listen in your browser - HTML5 player (in browser, HTML5)
Click here to listen with your own player (launches your MP3 player)
Archive Access: Seattle Center (Sector 14/15)
FacilityFrequency
Seattle Center (Sector 14 High)134.900
Seattle Center (Sector 15 High)135.150

Seattle Center (Sector 15)
Feed Status: UP   Listeners: 0
Listen in your browser - HTML5 player (in browser, HTML5)
Click here to listen with your own player (launches your MP3 player)
Archive Access: Seattle Center (Sector 15)
FacilityFrequency
Seattle Center (Sector 15 High)135.150

Seattle Center (Sector 30)
Feed Status: UP   Listeners: 0
Listen in your browser - HTML5 player (in browser, HTML5)
Click here to listen with your own player (launches your MP3 player)
Archive Access: Seattle Center (Sector 30)
FacilityFrequency
Seattle Center (Sector 30 Low)124.850

Seattle Center (Sector 30/36)
Feed Status: UP   Listeners: 0
Listen in your browser - HTML5 player (in browser, HTML5)
Click here to listen with your own player (launches your MP3 player)
Archive Access: Seattle Center (Sector 30/36)
FacilityFrequency
Seattle Center (Sector 30 Low)124.850
Seattle Center (Sector 36 Low)121.400
Seattle Center (Sector 36 Low)127.550

Seattle Center (Sector 36)
Feed Status: UP   Listeners: 0
Listen in your browser - HTML5 player (in browser, HTML5)
Click here to listen with your own player (launches your MP3 player)
Archive Access: Seattle Center (Sector 36)
FacilityFrequency
Seattle Center (Sector 36 Low)127.550

ICAO: KMSO  IATA: MSO   Airport: Missoula International Airport
City: Missoula   State/Province: Montana
Country: United States   Continent: North America
KMSO METAR Weather: KMSO 241453Z 00000KT 8SM FEW002 OVC060 M01/M02 A2995 RMK AO2 SLP169 I3000 T10111022 56004
KMSO Flight Activity (FlightAware)
KMSO Webcam:  (Airport Webcams) 
KMSO Airport Info   (iFlightPlanner)
KMSO VFR Sectional Chart   (iFlightPlanner) 
KMSO IFR Low Chart   (iFlightPlanner) 

KMSO Gnd/Twr/App/ZLC/ZSE
Feed Status: UP   Listeners: 1
Listen in your browser - HTML5 player (in browser, HTML5)
Click here to listen with your own player (launches your MP3 player)
Archive Access: KMSO Gnd/Twr/App/ZLC/ZSE
FacilityFrequency
Emergency/Guard121.500
Great Falls Radio Miller Peak RCO122.450
Minuteman Jet Center Unicom122.950
Missoula Ground/Clearance Delivery121.900
Missoula International Airport Operations154.965
Missoula International Airport Operations155.820
Missoula Tower118.400
Northstar Unicom123.300
Salt Lake Center132.400
Salt Lake City Center133.400
Seattle Center (Mullan Pass RCAG)128.450
Spokane Approach/Departure124.900

ICAO: KPSC  IATA: PSC   Airport: Tri-Cities Airport
City: Pasco   State/Province: Washington
Country: United States   Continent: North America
KPSC METAR Weather: KPSC 241453Z 00000KT 10SM CLR 08/06 A2993 RMK AO2 SLP136 T00830056 53000
KPSC Flight Activity (FlightAware)
KPSC Webcam:  
KPSC Airport Info   (iFlightPlanner)
KPSC VFR Sectional Chart   (iFlightPlanner) 
KPSC IFR Low Chart   (iFlightPlanner) 

KPSC/KRLD/S98/ZSE
Feed Status: DOWN
Last heard on: 2020-01-20 17:57:40 (3 days 21 hours 57 minutes ago)
Archive Access: KPSC/KRLD/S98/ZSE
FacilityFrequency
Chinook Approach133.150
Chinook Departure128.750
Emergency/Guard121.500
Pasco Clearance Delivery120.000
Pasco Ground121.800
Pasco Tower/CTAF135.300
Pasco UNICOM122.950
Richland (RLD) CTAF122.700
Seattle Center132.600
Seattle Flight Service Station: Jump-Off-Joe RCO122.400
Vista Field (S98) CTAF122.900

ICAO: KRDM  IATA: RDM   Airport: Roberts Field Airport
City: Redmond   State/Province: Oregon
Country: United States   Continent: North America
KRDM METAR Weather: KRDM 241456Z 06004KT 10SM FEW065 02/00 A3000 RMK AO2 SLP164 T00220000 53015
KRDM Flight Activity (FlightAware)
KRDM Webcam:  
KRDM Airport Info   (iFlightPlanner)
KRDM VFR Sectional Chart   (iFlightPlanner) 
KRDM IFR Low Chart   (iFlightPlanner) 

ZSE Seattle Center (Sector 05)
Feed Status: UP   Listeners: 0
Listen in your browser - HTML5 player (in browser, HTML5)
Click here to listen with your own player (launches your MP3 player)
Archive Access: ZSE Seattle Center (Sector 05)
FacilityFrequency
Seattle Center (Sector 05 Low)128.150

ZSE Seattle Center (Sector 46)
Feed Status: UP   Listeners: 0
Listen in your browser - HTML5 player (in browser, HTML5)
Click here to listen with your own player (launches your MP3 player)
Archive Access: ZSE Seattle Center (Sector 46)
FacilityFrequency
Seattle Center (Sector 46 High/Low)121.350

ICAO: KRLD  IATA: RLD   Airport: Richland Airport
City: Richland   State/Province: Washington
Country: United States   Continent: North America
KPSC METAR Weather: KPSC 241453Z 00000KT 10SM CLR 08/06 A2993 RMK AO2 SLP136 T00830056 53000
KRLD Flight Activity (FlightAware)
KRLD Webcam:  (Airport Webcams) 
KRLD Airport Info   (iFlightPlanner)
KRLD VFR Sectional Chart   (iFlightPlanner) 
KRLD IFR Low Chart   (iFlightPlanner) 

KPSC/KRLD/S98/ZSE
Feed Status: DOWN
Last heard on: 2020-01-20 17:57:40 (3 days 21 hours 57 minutes ago)
Archive Access: KPSC/KRLD/S98/ZSE
FacilityFrequency
Chinook Approach133.150
Chinook Departure128.750
Emergency/Guard121.500
Pasco Clearance Delivery120.000
Pasco Ground121.800
Pasco Tower/CTAF135.300
Pasco UNICOM122.950
Richland (RLD) CTAF122.700
Seattle Center132.600
Seattle Flight Service Station: Jump-Off-Joe RCO122.400
Vista Field (S98) CTAF122.900

ICAO: S98  IATA: S98   Airport: Vista Field Airport
City: Kennewick   State/Province: Washington
Country: United States   Continent: North America
KPSC METAR Weather: KPSC 241453Z 00000KT 10SM CLR 08/06 A2993 RMK AO2 SLP136 T00830056 53000
S98 Flight Activity (FlightAware)
S98 Webcam:  

KPSC/KRLD/S98/ZSE
Feed Status: DOWN
Last heard on: 2020-01-20 17:57:40 (3 days 21 hours 57 minutes ago)
Archive Access: KPSC/KRLD/S98/ZSE
FacilityFrequency
Chinook Approach133.150
Chinook Departure128.750
Emergency/Guard121.500
Pasco Clearance Delivery120.000
Pasco Ground121.800
Pasco Tower/CTAF135.300
Pasco UNICOM122.950
Richland (RLD) CTAF122.700
Seattle Center132.600
Seattle Flight Service Station: Jump-Off-Joe RCO122.400
Vista Field (S98) CTAF122.900

NOTICE

Unauthorized use prohibited. See LiveATC.net Terms of Service


Airport/ARTCC Code
Frequency Search
(e.g., 124.400, 128.75)
Site-wide search
 


Browse Feeds
Top 50 Feeds
Coverage Map
Bad Weather Areas

LiveATC FAQ
Offer LiveATC feed
Contact LiveATC.net
Press Inquiries

LiveATC on iPhone
LiveATC on Android

Windows Phone
Windows 8/10

LiveATC Mobile
(Mobile browser)

ATC Audio Archives
Interesting Recordings

LiveATC Forums


Home Page
About LiveATC.net
Make a Donation
Terms of Use
Privacy Policy

Canadian Air Freqs

AIRMETs/SIGMETs

FAA Airport Status
Nat'l Airspace Status
Arrival Demand Charts


Server Software By:
Icecast.org
Liquidsoap